Time;durP1;ratioP1;P1;durP2;ratioP2;P2;SDS_P1;SDS_P2;PMS_P1;PMS_P2;Temp;Humidity;BMP_temperature;BMP_pressure;BME280_temperature;BME280_humidity;BME280_pressure;Samples;Min_cycle;Max_cycle;Signal;HPM_P1;HPM_P2
2020/12/18 00:01:49;;;;;;;;;;;;;;;4.91;99.06;99717.22;5095291;28;19977;-80
2020/12/18 00:04:14;;;;;;;;;;;;;;;4.91;98.41;99707.03;5094660;28;19955;-78
2020/12/18 00:06:39;;;;;;;;;;;;;;;4.98;98.14;99712.13;5094105;28;19932;-83
2020/12/18 00:09:06;;;;;;;;;;;;;;;4.89;98.80;99713.81;5095197;28;20214;-79
2020/12/18 00:11:31;;;;;;;;;;;;;;;4.94;99.47;99707.88;5095081;28;19920;-81
2020/12/18 00:13:56;;;;;;;;;;;;;;;4.84;99.23;99711.25;5095163;28;20380;-83
2020/12/18 00:16:23;;;;;;;;;;;;;;;4.95;99.15;99709.59;5076411;28;20462;-81
2020/12/18 00:18:48;;;;;;;;;;;;;;;4.94;98.84;99709.56;5094993;28;19912;-81
2020/12/18 00:21:17;;;;;;;;;;;;;;;4.97;98.92;99700.22;5092270;27;19912;-81
2020/12/18 00:23:43;;;;;;;;;;;;;;;4.93;99.62;99700.22;5095972;27;20531;-80
2020/12/18 00:26:08;;;;;;;;;;;;;;;4.90;99.82;99706.16;5094451;28;19931;-79
2020/12/18 00:28:33;;;;;;;;;;;;;;;4.90;99.22;99700.19;5095488;28;19916;-80
2020/12/18 00:30:58;;;;;;;;;;;;;;;4.92;100.00;99704.44;5095969;28;19980;-81
2020/12/18 00:33:24;;;;;;;;;;;;;;;4.94;100.00;99709.56;5077754;28;19923;-80
2020/12/18 00:35:50;;;;;;;;;;;;;;;4.96;99.80;99716.38;5094863;28;19959;-81
2020/12/18 00:38:15;;;;;;;;;;;;;;;4.83;99.83;99709.53;5077656;28;19912;-81
2020/12/18 00:40:40;;;;;;;;;;;;;;;4.89;100.00;99719.78;5076660;28;19956;-79
2020/12/18 00:43:06;;;;;;;;;;;;;;;4.88;99.92;99712.97;5076534;28;20387;-81
2020/12/18 00:45:31;;;;;;;;;;;;;;;4.80;99.86;99714.66;5094875;28;20379;-81
2020/12/18 00:47:56;;;;;;;;;;;;;;;4.80;99.72;99717.19;5094068;28;19980;-80
2020/12/18 00:50:21;;;;;;;;;;;;;;;4.86;100.00;99714.66;5094188;28;19912;-79
2020/12/18 00:52:47;;;;;;;;;;;;;;;4.84;99.67;99720.63;5095518;28;19916;-79
2020/12/18 00:55:12;;;;;;;;;;;;;;;4.85;99.99;99723.16;5094611;28;19916;-81
2020/12/18 00:57:37;;;;;;;;;;;;;;;4.85;99.46;99727.41;5076027;28;20566;-81
2020/12/18 01:00:06;;;;;;;;;;;;;;;4.83;99.15;99729.94;5077445;28;20936;-81
2020/12/18 01:02:32;;;;;;;;;;;;;;;4.90;99.71;99728.28;5075083;28;20387;-81
2020/12/18 01:04:57;;;;;;;;;;;;;;;4.90;99.35;99734.22;5076378;28;20003;-80
2020/12/18 01:07:22;;;;;;;;;;;;;;;4.91;99.51;99728.28;5094582;28;19947;-81
2020/12/18 01:09:47;;;;;;;;;;;;;;;5.06;98.93;99730.00;5094893;28;19939;-81
2020/12/18 01:12:13;;;;;;;;;;;;;;;4.83;99.33;99732.50;5075635;28;19915;-80
2020/12/18 01:14:39;;;;;;;;;;;;;;;4.95;98.49;99732.56;5074450;28;19916;-81
2020/12/18 01:17:04;;;;;;;;;;;;;;;5.00;99.19;99727.47;5091872;28;19920;-81
2020/12/18 01:19:29;;;;;;;;;;;;;;;4.92;99.41;99735.09;5092582;28;19994;-81
2020/12/18 01:21:55;;;;;;;;;;;;;;;4.91;98.76;99733.38;5074504;28;19916;-81
2020/12/18 01:24:20;;;;;;;;;;;;;;;4.84;99.19;99729.13;5092152;28;19972;-80
2020/12/18 01:26:46;;;;;;;;;;;;;;;4.93;99.41;99735.97;5092115;28;19924;-79
2020/12/18 01:29:11;;;;;;;;;;;;;;;4.94;100.00;99733.38;5094297;28;20017;-80
2020/12/18 01:31:37;;;;;;;;;;;;;;;4.89;98.97;99735.09;5075729;28;19919;-80
2020/12/18 01:34:02;;;;;;;;;;;;;;;4.90;100.00;99730.81;5075611;28;19916;-81
2020/12/18 01:36:27;;;;;;;;;;;;;;;5.06;100.00;99726.59;5093018;28;20430;-81
2020/12/18 01:38:53;;;;;;;;;;;;;;;5.09;98.83;99727.47;5075474;28;19967;-82
2020/12/18 01:41:18;;;;;;;;;;;;;;;4.94;98.88;99732.53;5093676;28;20560;-81
2020/12/18 01:43:43;;;;;;;;;;;;;;;4.86;99.90;99734.22;5075802;28;19921;-81
2020/12/18 01:46:10;;;;;;;;;;;;;;;5.03;98.55;99728.31;5094460;28;19939;-82
2020/12/18 01:48:35;;;;;;;;;;;;;;;5.00;99.19;99728.31;5056195;28;20306;-82
2020/12/18 01:51:01;;;;;;;;;;;;;;;4.94;99.30;99735.94;5055025;28;19923;-80
2020/12/18 01:53:27;;;;;;;;;;;;;;;4.89;99.53;99739.34;5053964;28;20377;-81
2020/12/18 01:55:52;;;;;;;;;;;;;;;4.82;100.00;99734.22;5054915;28;19919;-81
2020/12/18 01:58:17;;;;;;;;;;;;;;;5.01;99.97;99735.09;5055268;28;19913;-81
2020/12/18 02:00:43;;;;;;;;;;;;;;;4.81;99.65;99729.09;5054259;28;19912;-82
2020/12/18 02:03:08;;;;;;;;;;;;;;;4.82;99.57;99725.72;5053862;28;20429;-79
2020/12/18 02:05:33;;;;;;;;;;;;;;;4.85;100.00;99720.59;5054797;28;19916;-79
2020/12/18 02:08:02;;;;;;;;;;;;;;;4.79;99.23;99721.47;5072575;28;20274;-81
2020/12/18 02:10:28;;;;;;;;;;;;;;;4.89;99.87;99719.78;5054581;28;19912;-78
2020/12/18 02:12:54;;;;;;;;;;;;;;;4.85;100.00;99722.31;5053929;28;19969;-81
2020/12/18 02:15:20;;;;;;;;;;;;;;;4.87;100.00;99721.47;5072714;28;19939;-82
2020/12/18 02:17:45;;;;;;;;;;;;;;;4.87;100.00;99721.47;5054494;28;19916;-82
2020/12/18 02:20:10;;;;;;;;;;;;;;;4.83;99.79;99719.75;5054652;28;19912;-80
2020/12/18 02:22:36;;;;;;;;;;;;;;;4.85;100.00;99714.66;5074675;28;19927;-82
2020/12/18 02:25:06;;;;;;;;;;;;;;;4.80;99.74;99719.75;5072986;28;20273;-82
2020/12/18 02:27:31;;;;;;;;;;;;;;;4.77;99.57;99720.59;5040357;28;19916;-82
2020/12/18 02:29:56;;;;;;;;;;;;;;;4.82;99.97;99718.06;5055409;28;20354;-80
2020/12/18 02:32:22;;;;;;;;;;;;;;;4.84;100.00;99724.03;5055642;28;19965;-79
2020/12/18 02:34:47;;;;;;;;;;;;;;;4.85;99.57;99718.06;5072321;28;19952;-78
2020/12/18 02:37:12;;;;;;;;;;;;;;;4.90;100.00;99711.25;5054021;28;19916;-79
2020/12/18 02:39:38;;;;;;;;;;;;;;;4.88;99.54;99718.09;5075376;28;19968;-79
2020/12/18 02:42:03;;;;;;;;;;;;;;;4.92;99.62;99708.72;5071343;28;20454;-82
2020/12/18 02:44:28;;;;;;;;;;;;;;;4.87;99.27;99718.91;5054722;28;19912;-80
2020/12/18 02:46:54;;;;;;;;;;;;;;;4.86;99.80;99709.56;5058436;28;20333;-81
2020/12/18 02:49:19;;;;;;;;;;;;;;;4.92;99.24;99712.09;5072644;28;19912;-82
2020/12/18 02:51:44;;;;;;;;;;;;;;;4.81;98.46;99708.69;5073468;28;19912;-81
2020/12/18 02:54:13;;;;;;;;;;;;;;;4.75;99.33;99704.44;5074714;28;19912;-79
2020/12/18 02:56:38;;;;;;;;;;;;;;;4.72;99.25;99708.66;5074552;28;19916;-82
2020/12/18 02:59:04;;;;;;;;;;;;;;;4.78;99.10;99708.69;5093481;28;19912;-82
2020/12/18 03:01:29;;;;;;;;;;;;;;;4.71;99.03;99705.25;5075336;28;19923;-79
2020/12/18 03:03:54;;;;;;;;;;;;;;;4.63;99.23;99712.06;5092561;28;19918;-79
2020/12/18 03:06:20;;;;;;;;;;;;;;;4.74;98.15;99715.47;5078145;28;19995;-79
2020/12/18 03:08:45;;;;;;;;;;;;;;;4.60;99.26;99709.47;5092540;28;20340;-82
2020/12/18 03:11:11;;;;;;;;;;;;;;;4.72;99.70;99713.75;5073672;28;19916;-82
2020/12/18 03:13:37;;;;;;;;;;;;;;;4.63;99.55;99706.06;5073569;28;19934;-82
2020/12/18 03:16:02;;;;;;;;;;;;;;;4.66;99.80;99701.00;5074971;28;20268;-82
2020/12/18 03:18:27;;;;;;;;;;;;;;;4.72;99.63;99701.00;5072776;28;19912;-81
2020/12/18 03:20:53;;;;;;;;;;;;;;;4.76;100.00;99702.72;5090718;28;19920;-82
2020/12/18 03:23:18;;;;;;;;;;;;;;;4.79;100.00;99702.75;5073390;28;20065;-79
2020/12/18 03:25:43;;;;;;;;;;;;;;;4.87;100.00;99705.31;5075782;28;19916;-82
2020/12/18 03:28:09;;;;;;;;;;;;;;;4.79;99.73;99705.31;5095108;28;20026;-82
2020/12/18 03:30:34;;;;;;;;;;;;;;;4.83;99.75;99696.78;5079108;28;20991;-82
2020/12/18 03:33:00;;;;;;;;;;;;;;;4.77;99.78;99696.78;5078142;28;19965;-79
2020/12/18 03:35:27;;;;;;;;;;;;;;;4.82;99.96;99690.81;5096431;28;19931;-82
2020/12/18 03:37:52;;;;;;;;;;;;;;;4.83;99.59;99694.22;5096478;28;20954;-82
2020/12/18 03:40:17;;;;;;;;;;;;;;;4.80;99.59;99691.69;5095588;28;20606;-79
2020/12/18 03:42:43;;;;;;;;;;;;;;;4.72;100.00;99696.78;5094797;28;19913;-79
2020/12/18 03:45:08;;;;;;;;;;;;;;;4.70;99.91;99688.25;5077029;28;19916;-80
2020/12/18 03:47:33;;;;;;;;;;;;;;;4.65;99.74;99694.19;5071387;28;19970;-81
2020/12/18 03:49:59;;;;;;;;;;;;;;;4.66;99.92;99696.75;5084338;28;19916;-79
2020/12/18 03:52:24;;;;;;;;;;;;;;;4.69;99.76;99698.44;5084942;28;19917;-80
2020/12/18 03:54:49;;;;;;;;;;;;;;;4.75;99.85;99701.88;5063687;28;20379;-81
2020/12/18 03:57:15;;;;;;;;;;;;;;;4.79;99.41;99712.94;5078492;28;19916;-82
2020/12/18 03:59:40;;;;;;;;;;;;;;;4.75;99.63;99712.06;5077750;28;19970;-82
2020/12/18 04:02:06;;;;;;;;;;;;;;;4.83;99.51;99714.63;5057632;28;19916;-82
2020/12/18 04:04:31;;;;;;;;;;;;;;;4.71;99.46;99718.00;5076213;28;20000;-82
2020/12/18 04:06:56;;;;;;;;;;;;;;;4.86;98.49;99722.31;5058303;28;19916;-79
2020/12/18 04:09:22;;;;;;;;;;;;;;;4.80;97.82;99724.84;5075328;28;19965;-82
2020/12/18 04:11:47;;;;;;;;;;;;;;;4.65;98.46;99717.13;5074783;28;19922;-80
2020/12/18 04:14:12;;;;;;;;;;;;;;;4.58;100.00;99717.13;5057821;28;19916;-79
2020/12/18 04:16:38;;;;;;;;;;;;;;;4.57;99.34;99720.53;5074526;28;19924;-79
2020/12/18 04:19:03;;;;;;;;;;;;;;;4.61;99.38;99724.78;5075147;28;20435;-82
2020/12/18 04:21:29;;;;;;;;;;;;;;;4.49;100.00;99722.16;5075051;28;20019;-82
2020/12/18 04:23:54;;;;;;;;;;;;;;;4.62;100.00;99725.63;5075371;28;19919;-82
2020/12/18 04:26:19;;;;;;;;;;;;;;;4.68;99.92;99724.81;5057911;28;19917;-81
2020/12/18 04:28:45;;;;;;;;;;;;;;;4.59;100.00;99717.97;5076552;28;20002;-82
2020/12/18 04:31:10;;;;;;;;;;;;;;;4.60;100.00;99717.97;5075480;28;19913;-82
2020/12/18 04:33:36;;;;;;;;;;;;;;;4.66;100.00;99718.84;5057197;28;19959;-81
2020/12/18 04:36:02;;;;;;;;;;;;;;;4.65;100.00;99714.59;5056724;28;19916;-80
2020/12/18 04:38:27;;;;;;;;;;;;;;;4.56;100.00;99711.19;5057533;28;20373;-80
2020/12/18 04:40:52;;;;;;;;;;;;;;;4.59;100.00;99711.19;5075795;28;19916;-82
2020/12/18 04:43:18;;;;;;;;;;;;;;;4.61;100.00;99699.28;5056306;28;20424;-82
2020/12/18 04:45:43;;;;;;;;;;;;;;;4.66;100.00;99706.94;5074175;28;19920;-83
2020/12/18 04:48:09;;;;;;;;;;;;;;;4.67;100.00;99707.78;5054819;28;19920;-83
2020/12/18 04:50:34;;;;;;;;;;;;;;;4.57;100.00;99700.13;5076149;28;20383;-80
2020/12/18 04:53:01;;;;;;;;;;;;;;;4.60;100.00;99697.56;5076307;28;19912;-80
2020/12/18 04:55:27;;;;;;;;;;;;;;;4.67;100.00;99695.88;5075342;28;19920;-80
2020/12/18 04:57:52;;;;;;;;;;;;;;;4.61;100.00;99699.28;5075883;28;19969;-82
2020/12/18 05:00:17;;;;;;;;;;;;;;;4.68;100.00;99694.22;5075510;28;19912;-83
2020/12/18 05:02:43;;;;;;;;;;;;;;;4.61;100.00;99689.06;5076800;28;19912;-82
2020/12/18 05:05:10;;;;;;;;;;;;;;;4.68;100.00;99692.50;5076460;28;20442;-83
2020/12/18 05:07:35;;;;;;;;;;;;;;;4.74;100.00;99696.75;5075639;28;19920;-82
2020/12/18 05:10:00;;;;;;;;;;;;;;;4.67;100.00;99700.13;5076813;28;19916;-80
2020/12/18 05:12:26;;;;;;;;;;;;;;;4.72;100.00;99701.88;5094710;28;19947;-82
2020/12/18 05:14:51;;;;;;;;;;;;;;;4.68;100.00;99695.06;5076163;28;19916;-82
2020/12/18 05:17:17;;;;;;;;;;;;;;;4.67;100.00;99692.50;5094496;28;19926;-82
2020/12/18 05:19:43;;;;;;;;;;;;;;;4.60;100.00;99695.00;5075010;28;20011;-82
2020/12/18 05:22:09;;;;;;;;;;;;;;;4.59;100.00;99695.03;5075304;28;19979;-82
2020/12/18 05:24:36;;;;;;;;;;;;;;;4.66;100.00;99695.91;5074713;28;19923;-82
2020/12/18 05:27:01;;;;;;;;;;;;;;;4.63;100.00;99695.88;5075015;28;20005;-83
2020/12/18 05:29:27;;;;;;;;;;;;;;;4.67;100.00;99692.50;5074597;28;20424;-80
2020/12/18 05:31:54;;;;;;;;;;;;;;;4.63;100.00;99695.88;5076783;28;20309;-80
2020/12/18 05:34:19;;;;;;;;;;;;;;;4.61;100.00;99694.19;5076256;28;20007;-84
2020/12/18 05:36:45;;;;;;;;;;;;;;;4.60;100.00;99697.56;5075115;28;19947;-82
2020/12/18 05:39:11;;;;;;;;;;;;;;;4.68;100.00;99696.75;5090713;28;19953;-82
2020/12/18 05:41:37;;;;;;;;;;;;;;;4.63;100.00;99695.88;5075246;28;19959;-83
2020/12/18 05:44:06;;;;;;;;;;;;;;;4.71;100.00;99694.22;5075914;28;19927;-81
2020/12/18 05:46:34;;;;;;;;;;;;;;;4.64;100.00;99695.03;5094166;28;19924;-80
2020/12/18 05:49:07;;;;;;;;;;;;;;;4.65;100.00;99695.03;5076699;28;19923;-83
2020/12/18 05:51:33;;;;;;;;;;;;;;;4.65;100.00;99699.28;5094424;28;19920;-81
2020/12/18 05:54:11;;;;;;;;;;;;;;;4.70;100.00;99703.56;5075338;28;19919;-84
2020/12/18 05:56:37;;;;;;;;;;;;;;;4.68;100.00;99692.50;5091626;28;19916;-82
2020/12/18 05:59:06;;;;;;;;;;;;;;;4.69;100.00;99693.34;5077052;28;19916;-85
2020/12/18 06:01:32;;;;;;;;;;;;;;;4.67;100.00;99689.94;5074020;28;20015;-82
2020/12/18 06:04:01;;;;;;;;;;;;;;;4.68;100.00;99691.66;5076526;28;19970;-83
2020/12/18 06:06:27;;;;;;;;;;;;;;;4.69;100.00;99695.91;5076075;28;19920;-83
2020/12/18 06:08:52;;;;;;;;;;;;;;;4.66;100.00;99690.78;5076274;28;19916;-79
2020/12/18 06:11:18;;;;;;;;;;;;;;;4.69;100.00;99701.84;5077282;28;19911;-81
2020/12/18 06:13:43;;;;;;;;;;;;;;;4.69;100.00;99695.91;5076544;28;19957;-82
2020/12/18 06:16:09;;;;;;;;;;;;;;;4.73;100.00;99695.06;5077093;28;20310;-83
2020/12/18 06:18:34;;;;;;;;;;;;;;;4.81;100.00;99691.69;5076071;28;19955;-82
2020/12/18 06:20:59;;;;;;;;;;;;;;;4.65;100.00;99699.28;5075880;28;19916;-83
2020/12/18 06:23:25;;;;;;;;;;;;;;;4.73;100.00;99695.91;5075531;28;19916;-82
2020/12/18 06:25:50;;;;;;;;;;;;;;;4.76;100.00;99702.72;5084416;28;19912;-83
2020/12/18 06:28:16;;;;;;;;;;;;;;;4.82;100.00;99702.75;5075952;28;19977;-83
2020/12/18 06:30:41;;;;;;;;;;;;;;;4.81;100.00;99698.47;5075938;28;20317;-82
2020/12/18 06:33:06;;;;;;;;;;;;;;;4.65;100.00;99689.06;5076487;28;20364;-83
2020/12/18 06:35:32;;;;;;;;;;;;;;;4.65;100.00;99694.19;5073126;28;19947;-82
2020/12/18 06:37:58;;;;;;;;;;;;;;;4.79;100.00;99685.72;5075443;28;19963;-83
2020/12/18 06:40:30;;;;;;;;;;;;;;;4.82;100.00;99689.97;5074035;28;20487;-82
2020/12/18 06:42:56;;;;;;;;;;;;;;;4.75;100.00;99691.66;5074755;28;19912;-82
2020/12/18 06:45:22;;;;;;;;;;;;;;;4.64;100.00;99689.94;5074339;28;19920;-81
2020/12/18 06:47:47;;;;;;;;;;;;;;;4.75;100.00;99680.63;5074551;28;20147;-82
2020/12/18 06:50:14;;;;;;;;;;;;;;;4.70;100.00;99688.25;5074239;28;19916;-79
2020/12/18 06:52:39;;;;;;;;;;;;;;;4.71;100.00;99694.22;5074771;28;19916;-80
2020/12/18 06:55:05;;;;;;;;;;;;;;;4.63;100.00;99688.22;5093368;28;19916;-82
2020/12/18 06:57:31;;;;;;;;;;;;;;;4.67;100.00;99688.22;5075796;28;19912;-81
2020/12/18 07:00:15;;;;;;;;;;;;;;;4.64;100.00;99682.28;5079007;28;20285;-81
2020/12/18 07:02:40;;;;;;;;;;;;;;;4.63;100.00;99686.53;5097755;28;19962;-81
2020/12/18 07:05:05;;;;;;;;;;;;;;;4.63;100.00;99686.53;5098449;28;19912;-82
2020/12/18 07:07:40;;;;;;;;;;;;;;;4.56;100.00;99688.22;5078698;28;19923;-82
2020/12/18 07:10:05;;;;;;;;;;;;;;;4.58;100.00;99691.63;5080052;28;19912;-80
2020/12/18 07:12:31;;;;;;;;;;;;;;;4.65;100.00;99681.41;5079386;28;19919;-81
2020/12/18 07:14:56;;;;;;;;;;;;;;;4.58;100.00;99683.97;5078772;28;19915;-82
2020/12/18 07:17:21;;;;;;;;;;;;;;;4.69;100.00;99685.69;5079240;28;19920;-81
2020/12/18 07:19:47;;;;;;;;;;;;;;;4.64;100.00;99687.38;5079814;28;19916;-81
2020/12/18 07:22:12;;;;;;;;;;;;;;;4.64;100.00;99685.69;5079285;28;19920;-84
2020/12/18 07:24:37;;;;;;;;;;;;;;;4.64;100.00;99682.28;5097027;28;19922;-78
2020/12/18 07:27:03;;;;;;;;;;;;;;;4.66;100.00;99684.00;5081128;28;19920;-81
2020/12/18 07:29:28;;;;;;;;;;;;;;;4.68;100.00;99669.53;5097937;28;20011;-81
2020/12/18 07:31:56;;;;;;;;;;;;;;;4.65;100.00;99674.63;5080695;28;19973;-80
2020/12/18 07:34:22;;;;;;;;;;;;;;;4.63;100.00;99680.56;5079525;28;20614;-85
2020/12/18 07:36:47;;;;;;;;;;;;;;;4.65;100.00;99673.78;5078742;28;19916;-80
2020/12/18 07:39:12;;;;;;;;;;;;;;;4.59;100.00;99674.63;5079664;28;19915;-81
2020/12/18 07:41:38;;;;;;;;;;;;;;;4.61;100.00;99678.03;5078917;28;19923;-82
2020/12/18 07:44:04;;;;;;;;;;;;;;;4.58;100.00;99676.31;5078964;28;19916;-82
2020/12/18 07:46:30;;;;;;;;;;;;;;;4.58;100.00;99673.78;5078374;28;19927;-80
2020/12/18 07:48:55;;;;;;;;;;;;;;;4.71;100.00;99663.59;5075415;28;20057;-82
2020/12/18 07:51:21;;;;;;;;;;;;;;;4.60;100.00;99672.03;5089035;28;19979;-81
2020/12/18 07:53:49;;;;;;;;;;;;;;;4.74;100.00;99669.53;5095623;28;19920;-83
2020/12/18 07:56:18;;;;;;;;;;;;;;;4.69;100.00;99665.28;5076284;28;19912;-80
2020/12/18 07:58:45;;;;;;;;;;;;;;;4.73;100.00;99667.84;5091837;28;20029;-82
2020/12/18 08:01:11;;;;;;;;;;;;;;;4.78;100.00;99672.97;5095566;28;19951;-82
2020/12/18 08:03:37;;;;;;;;;;;;;;;4.74;100.00;99669.53;5076972;28;20385;-82
2020/12/18 08:06:04;;;;;;;;;;;;;;;4.76;100.00;99667.00;5078386;28;19923;-82
2020/12/18 08:08:30;;;;;;;;;;;;;;;4.77;100.00;99666.16;5077752;28;19920;-82
2020/12/18 08:10:55;;;;;;;;;;;;;;;4.78;100.00;99671.25;5076818;28;19927;-81
2020/12/18 08:13:27;;;;;;;;;;;;;;;4.80;100.00;99663.59;5078035;28;19934;-85
2020/12/18 08:16:06;;;;;;;;;;;;;;;4.90;100.00;99665.31;5060577;28;19938;-81
2020/12/18 08:18:32;;;;;;;;;;;;;;;4.87;100.00;99660.22;5076125;28;19946;-79
2020/12/18 08:21:20;;;;;;;;;;;;;;;4.92;100.00;99668.72;5063651;28;20565;-80
2020/12/18 08:23:48;;;;;;;;;;;;;;;4.96;100.00;99670.44;5103372;28;20007;-80
2020/12/18 08:26:14;;;;;;;;;;;;;;;4.98;100.00;99668.75;5079868;28;19916;-80
2020/12/18 08:28:40;;;;;;;;;;;;;;;4.96;100.00;99665.34;5086223;28;19959;-81
2020/12/18 08:31:06;;;;;;;;;;;;;;;5.08;100.00;99668.75;5075981;28;19955;-78
2020/12/18 08:34:01;;;;;;;;;;;;;;;5.21;100.00;99670.47;5088725;28;19911;-80
2020/12/18 08:36:26;;;;;;;;;;;;;;;5.19;100.00;99669.63;5073341;28;19920;-79
2020/12/18 08:39:03;;;;;;;;;;;;;;;5.21;99.96;99660.25;5077471;28;20011;-80
2020/12/18 08:41:42;;;;;;;;;;;;;;;5.27;100.00;99665.38;5082095;28;19927;-77
2020/12/18 08:44:08;;;;;;;;;;;;;;;5.30;100.00;99665.34;5087960;28;19927;-80
2020/12/18 08:46:33;;;;;;;;;;;;;;;5.38;100.00;99663.66;5073272;28;19912;-80
2020/12/18 08:48:59;;;;;;;;;;;;;;;5.41;99.73;99661.09;5089811;28;19919;-79
2020/12/18 08:51:24;;;;;;;;;;;;;;;5.44;99.76;99657.69;5073824;28;20430;-80
2020/12/18 08:53:50;;;;;;;;;;;;;;;5.50;99.45;99657.69;5076022;28;19978;-79
2020/12/18 08:56:18;;;;;;;;;;;;;;;5.49;99.47;99661.09;5073863;28;19955;-81
2020/12/18 08:58:44;;;;;;;;;;;;;;;5.58;99.47;99650.00;5077096;28;20369;-82
2020/12/18 09:01:20;;;;;;;;;;;;;;;5.55;99.35;99655.13;5076462;28;20006;-82
2020/12/18 09:03:46;;;;;;;;;;;;;;;5.66;98.84;99656.81;5094789;28;19955;-81
2020/12/18 09:06:11;;;;;;;;;;;;;;;5.66;98.98;99661.09;5059354;28;19948;-80
2020/12/18 09:08:36;;;;;;;;;;;;;;;5.73;98.29;99657.66;5081484;28;19966;-79
2020/12/18 09:11:02;;;;;;;;;;;;;;;5.80;98.12;99661.91;5086185;28;19923;-79
2020/12/18 09:13:31;;;;;;;;;;;;;;;5.85;98.11;99649.13;5086303;28;19916;-79
2020/12/18 09:16:02;;;;;;;;;;;;;;;5.75;98.41;99653.41;5086736;28;19912;-79
2020/12/18 09:18:28;;;;;;;;;;;;;;;5.85;98.04;99655.06;5103035;28;19916;-80
2020/12/18 09:20:54;;;;;;;;;;;;;;;5.99;98.05;99649.09;5101606;28;19946;-81
2020/12/18 09:23:30;;;;;;;;;;;;;;;5.99;97.83;99654.22;5078355;28;19965;-81
2020/12/18 09:25:55;;;;;;;;;;;;;;;6.07;97.75;99655.06;5087845;28;19916;-81
2020/12/18 09:28:21;;;;;;;;;;;;;;;6.10;97.16;99662.72;5064877;28;19927;-82
2020/12/18 09:30:49;;;;;;;;;;;;;;;6.26;97.26;99656.69;5064150;28;20011;-80
2020/12/18 09:33:17;;;;;;;;;;;;;;;6.26;96.21;99651.56;5083212;28;19945;-79
2020/12/18 09:35:43;;;;;;;;;;;;;;;6.38;96.29;99652.38;5084023;28;19916;-81
2020/12/18 09:38:09;;;;;;;;;;;;;;;6.54;95.83;99651.44;5065765;28;21011;-79
2020/12/18 09:40:34;;;;;;;;;;;;;;;6.50;96.25;99654.88;5065010;28;20638;-82
2020/12/18 09:42:59;;;;;;;;;;;;;;;6.47;96.28;99652.31;5082129;28;19924;-79
2020/12/18 09:45:25;;;;;;;;;;;;;;;6.55;95.80;99660.81;5066021;28;19916;-80
2020/12/18 09:47:50;;;;;;;;;;;;;;;6.68;95.32;99661.59;5093177;28;19927;-81
2020/12/18 09:50:15;;;;;;;;;;;;;;;6.68;95.31;99670.16;5091182;28;19916;-82
2020/12/18 09:52:41;;;;;;;;;;;;;;;6.46;96.00;99669.38;5072749;28;19919;-81
2020/12/18 09:55:06;;;;;;;;;;;;;;;6.87;95.19;99675.16;5092107;28;19920;-81
2020/12/18 09:57:34;;;;;;;;;;;;;;;6.77;95.25;99669.22;5073381;28;19943;-81
2020/12/18 10:00:04;;;;;;;;;;;;;;;6.77;95.37;99674.34;5079119;28;19916;-81
2020/12/18 10:02:29;;;;;;;;;;;;;;;6.90;95.08;99675.97;5072036;28;20019;-79
2020/12/18 10:04:56;;;;;;;;;;;;;;;6.94;95.30;99676.81;5090477;28;19977;-81
2020/12/18 10:07:21;;;;;;;;;;;;;;;7.06;94.90;99676.72;5072526;28;19923;-81
2020/12/18 10:09:46;;;;;;;;;;;;;;;7.26;94.02;99683.44;5071485;28;19943;-80
2020/12/18 10:12:12;;;;;;;;;;;;;;;7.23;93.82;99674.06;5089706;28;20271;-79
2020/12/18 10:14:38;;;;;;;;;;;;;;;7.56;93.66;99681.47;5092619;28;20355;-81
2020/12/18 10:17:03;;;;;;;;;;;;;;;7.42;92.93;99673.91;5091620;28;19923;-81
2020/12/18 10:19:29;;;;;;;;;;;;;;;7.58;92.76;99677.19;5072893;28;19916;-81
2020/12/18 10:21:54;;;;;;;;;;;;;;;7.64;92.13;99671.97;5072083;28;20525;-81
2020/12/18 10:24:20;;;;;;;;;;;;;;;7.75;92.46;99676.16;5088518;28;20241;-81
2020/12/18 10:26:47;;;;;;;;;;;;;;;7.81;91.60;99665.00;5088804;28;19927;-80
2020/12/18 10:29:12;;;;;;;;;;;;;;;7.89;92.08;99660.66;5090055;28;19920;-80
2020/12/18 10:31:38;;;;;;;;;;;;;;;7.91;91.31;99671.75;5090248;28;20012;-81
2020/12/18 10:34:04;;;;;;;;;;;;;;;7.87;91.48;99666.66;5089260;28;19912;-81
2020/12/18 10:36:30;;;;;;;;;;;;;;;7.93;91.72;99672.53;5070921;28;19916;-81
2020/12/18 10:38:55;;;;;;;;;;;;;;;8.17;90.89;99665.47;5071853;28;19923;-79
2020/12/18 10:41:20;;;;;;;;;;;;;;;8.27;90.81;99669.59;5071121;28;20316;-79
2020/12/18 10:43:46;;;;;;;;;;;;;;;8.31;90.09;99673.84;5071304;28;19916;-79
2020/12/18 10:46:11;;;;;;;;;;;;;;;8.11;90.44;99675.78;5089090;28;19927;-79
2020/12/18 10:48:36;;;;;;;;;;;;;;;8.25;90.67;99679.03;5080996;28;19923;-80
2020/12/18 10:51:02;;;;;;;;;;;;;;;8.03;91.19;99682.69;5088763;28;19916;-80
2020/12/18 10:53:27;;;;;;;;;;;;;;;8.38;89.98;99684.88;5068097;28;20388;-79
2020/12/18 10:55:52;;;;;;;;;;;;;;;8.31;91.46;99686.66;5082607;28;19931;-79
2020/12/18 10:58:18;;;;;;;;;;;;;;;8.35;90.63;99680.66;5089149;28;20560;-80
2020/12/18 11:00:43;;;;;;;;;;;;;;;8.34;90.84;99678.94;5087809;28;19985;-80
2020/12/18 11:03:09;;;;;;;;;;;;;;;8.25;90.54;99679.03;5088592;28;19918;-79
2020/12/18 11:05:34;;;;;;;;;;;;;;;8.30;90.59;99672.16;5089390;28;19923;-77
2020/12/18 11:08:00;;;;;;;;;;;;;;;8.26;90.71;99680.75;5070781;28;20576;-79
2020/12/18 11:10:25;;;;;;;;;;;;;;;8.39;89.94;99684.00;5070859;28;20282;-78
2020/12/18 11:12:50;;;;;;;;;;;;;;;8.42;89.53;99683.19;5053737;28;19947;-80
2020/12/18 11:15:16;;;;;;;;;;;;;;;8.36;90.58;99687.47;5075543;28;19938;-80
2020/12/18 11:17:42;;;;;;;;;;;;;;;8.53;89.20;99683.84;5060022;28;19916;-80
2020/12/18 11:20:07;;;;;;;;;;;;;;;8.50;89.49;99678.78;5077229;28;19955;-79
2020/12/18 11:22:32;;;;;;;;;;;;;;;8.52;89.52;99679.63;5076374;28;20463;-78
2020/12/18 11:24:59;;;;;;;;;;;;;;;8.54;88.76;99681.28;5042415;28;19916;-79
2020/12/18 11:27:25;;;;;;;;;;;;;;;8.63;88.85;99680.31;5057844;28;20373;-79
2020/12/18 11:29:50;;;;;;;;;;;;;;;8.82;88.64;99675.78;5056667;28;19922;-79
2020/12/18 11:32:16;;;;;;;;;;;;;;;8.66;89.05;99684.56;5057180;28;19919;-78
2020/12/18 11:34:43;;;;;;;;;;;;;;;8.69;89.09;99671.66;5076654;28;19918;-77
2020/12/18 11:37:09;;;;;;;;;;;;;;;8.77;88.72;99664.72;5041769;28;20637;-78
2020/12/18 11:39:35;;;;;;;;;;;;;;;8.88;88.33;99662.00;5056568;28;19959;-77
2020/12/18 11:42:00;;;;;;;;;;;;;;;8.76;89.17;99656.19;5075846;28;19958;-78
2020/12/18 11:44:25;;;;;;;;;;;;;;;8.73;88.68;99660.50;5057476;28;19916;-78
2020/12/18 11:46:51;;;;;;;;;;;;;;;8.76;88.65;99653.63;5055395;28;19931;-78
2020/12/18 11:49:16;;;;;;;;;;;;;;;8.88;88.62;99656.88;5041852;28;19927;-78
2020/12/18 11:51:41;;;;;;;;;;;;;;;8.87;88.55;99652.59;5058737;28;19927;-78
2020/12/18 11:54:07;;;;;;;;;;;;;;;8.87;86.96;99648.34;5040624;28;20015;-78
2020/12/18 11:56:32;;;;;;;;;;;;;;;8.77;87.82;99647.59;5058921;28;19920;-79
2020/12/18 11:58:58;;;;;;;;;;;;;;;8.75;88.91;99649.34;5043646;28;19969;-78
2020/12/18 12:01:23;;;;;;;;;;;;;;;8.87;87.58;99644.88;5061370;28;20030;-80
2020/12/18 12:03:49;;;;;;;;;;;;;;;8.88;87.47;99641.47;5062377;28;20746;-81
2020/12/18 12:06:15;;;;;;;;;;;;;;;8.81;88.63;99634.72;5046163;28;20702;-79
2020/12/18 12:08:40;;;;;;;;;;;;;;;8.95;87.86;99630.22;5062784;28;19919;-78
2020/12/18 12:11:05;;;;;;;;;;;;;;;8.95;87.98;99631.06;5044286;28;19912;-78
2020/12/18 12:13:31;;;;;;;;;;;;;;;8.91;85.95;99623.44;5062786;28;19921;-82
2020/12/18 12:15:56;;;;;;;;;;;;;;;9.09;86.22;99625.72;5044447;28;19920;-80
2020/12/18 12:18:22;;;;;;;;;;;;;;;8.79;88.72;99612.47;5060408;28;20023;-79
2020/12/18 12:20:47;;;;;;;;;;;;;;;9.05;86.64;99615.50;5060173;28;19920;-79
2020/12/18 12:23:12;;;;;;;;;;;;;;;9.07;85.48;99608.63;5041135;28;19921;-78
2020/12/18 12:25:38;;;;;;;;;;;;;;;8.97;87.77;99605.38;5041131;28;19923;-80
2020/12/18 12:28:04;;;;;;;;;;;;;;;8.93;87.74;99616.56;5064135;28;19916;-79
2020/12/18 12:30:30;;;;;;;;;;;;;;;8.78;88.66;99612.47;5055635;28;19913;-80
2020/12/18 12:32:55;;;;;;;;;;;;;;;8.86;88.54;99608.09;5073041;28;19916;-79
2020/12/18 12:35:21;;;;;;;;;;;;;;;8.98;85.47;99605.31;5055035;28;19989;-79
2020/12/18 12:37:49;;;;;;;;;;;;;;;9.03;85.29;99597.53;5072995;28;19955;-80
2020/12/18 12:40:15;;;;;;;;;;;;;;;9.04;85.76;99598.41;5053673;28;19912;-79
2020/12/18 12:42:40;;;;;;;;;;;;;;;8.97;86.13;99595.09;5053377;28;19985;-78
2020/12/18 12:45:05;;;;;;;;;;;;;;;8.98;87.07;99597.59;5072279;28;19916;-79
2020/12/18 12:47:31;;;;;;;;;;;;;;;8.96;86.27;99598.50;5062835;28;19950;-79